createdAt,value
2023-02-01T00:01:42.052Z,4.13
2023-02-01T00:03:43.112Z,4.2
2023-02-01T00:05:44.215Z,4.13
2023-02-01T00:07:45.477Z,4.07
2023-02-01T00:09:47.340Z,4.05
2023-02-01T00:11:49.074Z,4.04
2023-02-01T00:13:50.094Z,4.03
2023-02-01T00:15:51.715Z,4.01
2023-02-01T00:17:52.826Z,4.02
2023-02-01T00:19:54.651Z,4
2023-02-01T00:21:55.736Z,4.02
2023-02-01T00:23:56.906Z,3.98
2023-02-01T00:25:58.169Z,3.97
2023-02-01T00:27:59.281Z,3.95
2023-02-01T00:30:00.667Z,3.97
2023-02-01T00:32:02.042Z,3.94
2023-02-01T00:34:03.143Z,3.92
2023-02-01T00:36:04.873Z,3.9
2023-02-01T00:38:06.982Z,3.9
2023-02-01T00:40:08.268Z,3.91
2023-02-01T00:42:10.071Z,3.96
2023-02-01T00:44:11.607Z,3.94
2023-02-01T00:46:13.086Z,3.91
2023-02-01T00:48:14.400Z,3.88
2023-02-01T00:50:15.512Z,3.88
2023-02-01T00:52:17.335Z,3.93
2023-02-01T00:54:18.546Z,3.95
2023-02-01T00:56:19.942Z,3.94
2023-02-01T00:58:21.340Z,4.01
2023-02-01T01:00:23.570Z,4.04
2023-02-01T01:02:24.621Z,4.03
2023-02-01T01:04:26.019Z,4.03
2023-02-01T01:06:27.930Z,4.07
2023-02-01T01:08:29.743Z,4.12
2023-02-01T01:10:31.741Z,4.08
2023-02-01T01:12:32.796Z,4.12
2023-02-01T01:14:34.385Z,4.07
2023-02-01T01:16:36.354Z,4.09
2023-02-01T01:18:38.097Z,4.06
2023-02-01T01:20:40.043Z,4.04
2023-02-01T01:22:41.540Z,4.06
2023-02-01T01:24:42.852Z,4.08
2023-02-01T01:26:44.715Z,4.11
2023-02-01T01:28:46.370Z,4.16
2023-02-01T01:30:48.066Z,4.15
2023-02-01T01:32:49.735Z,4.19
2023-02-01T01:34:51.585Z,4.13
2023-02-01T01:36:53.061Z,4.07
2023-02-01T01:38:54.163Z,4.12
2023-02-01T01:40:56.047Z,4.09
2023-02-01T01:42:57.191Z,4.12
2023-02-01T01:44:58.581Z,4.19
2023-02-01T01:47:00.416Z,4.14
2023-02-01T01:49:02.270Z,4.08
2023-02-01T01:51:03.921Z,4.11
2023-02-01T01:53:05.359Z,4.1
2023-02-01T01:55:06.805Z,4.14
2023-02-01T01:57:08.665Z,4.13
2023-02-01T01:59:10.123Z,4.16
2023-02-01T02:01:11.663Z,4.22
2023-02-01T02:03:13.361Z,4.24
2023-02-01T02:05:14.949Z,4.25
2023-02-01T02:07:16.649Z,4.27
2023-02-01T02:09:18.211Z,4.21
2023-02-01T02:11:19.226Z,4.21
2023-02-01T02:13:20.413Z,4.25
2023-02-01T02:15:22.367Z,4.27
2023-02-01T02:17:24.193Z,4.21
2023-02-01T02:19:25.599Z,4.25
2023-02-01T02:21:27.297Z,4.25
2023-02-01T02:23:28.336Z,4.28
2023-02-01T02:25:29.416Z,4.31
2023-02-01T02:27:30.780Z,4.28
2023-02-01T02:29:32.142Z,4.28
2023-02-01T02:31:33.516Z,4.28
2023-02-01T02:33:35.306Z,4.27
2023-02-01T02:35:36.563Z,4.32
2023-02-01T02:37:37.581Z,4.3
2023-02-01T02:39:38.668Z,4.25
2023-02-01T02:41:40.405Z,4.24
2023-02-01T02:43:42.192Z,4.29
2023-02-01T02:45:43.673Z,4.31
2023-02-01T02:47:45.083Z,4.27
2023-02-01T02:49:46.972Z,4.33
2023-02-01T02:51:48.700Z,4.31
2023-02-01T02:53:49.890Z,4.27
2023-02-01T02:55:51.227Z,4.29
2023-02-01T02:57:52.402Z,4.3
2023-02-01T02:59:54.059Z,4.25
2023-02-01T03:01:55.962Z,4.21
2023-02-01T03:03:57.891Z,4.21
2023-02-01T03:05:59.466Z,4.2
2023-02-01T03:08:01.167Z,4.23
2023-02-01T03:10:02.725Z,4.24
2023-02-01T03:12:04.456Z,4.23
2023-02-01T03:14:06.412Z,4.27
2023-02-01T03:16:07.874Z,4.27
2023-02-01T03:18:09.819Z,4.27
2023-02-01T03:20:11.173Z,4.22
2023-02-01T03:22:12.368Z,4.25
2023-02-01T03:24:13.893Z,4.27
2023-02-01T03:26:15.291Z,4.27
2023-02-01T03:28:16.485Z,4.27
2023-02-01T03:30:18.261Z,4.26
2023-02-01T03:32:19.764Z,4.3
2023-02-01T03:34:21.511Z,4.35
2023-02-01T03:36:23.025Z,4.35
2023-02-01T03:38:24.616Z,4.33
2023-02-01T03:40:25.858Z,4.32
2023-02-01T03:42:27.780Z,4.31
2023-02-01T03:44:29.455Z,4.32
2023-02-01T03:46:31.373Z,4.31
2023-02-01T03:48:33.016Z,4.38
2023-02-01T03:50:34.225Z,4.33
2023-02-01T03:54:37.096Z,4.35
2023-02-01T03:56:39.071Z,4.33
2023-02-01T03:58:40.683Z,4.31
2023-02-01T04:00:42.472Z,4.3
2023-02-01T04:02:43.841Z,4.32
2023-02-01T04:04:45.670Z,4.32
2023-02-01T04:06:47.495Z,4.31
2023-02-01T04:08:48.683Z,4.33
2023-02-01T04:10:50.643Z,4.3
2023-02-01T04:12:52.432Z,4.27
2023-02-01T04:14:54.232Z,4.28
2023-02-01T04:16:55.856Z,4.27
2023-02-01T04:18:56.898Z,4.23
2023-02-01T04:20:58.180Z,4.22
2023-02-01T04:22:59.457Z,4.28
2023-02-01T04:25:00.421Z,4.31
2023-02-01T04:25:44.327Z,4.26
2023-02-01T04:27:45.827Z,4.3
2023-02-01T04:29:47.127Z,4.23
2023-02-01T04:31:49.218Z,4.2
2023-02-01T04:33:50.918Z,4.2
2023-02-01T04:35:52.506Z,4.25
2023-02-01T04:37:54.079Z,4.27
2023-02-01T04:39:55.780Z,4.24
2023-02-01T04:41:57.135Z,4.27
2023-02-01T04:43:58.522Z,4.3
2023-02-01T04:45:59.866Z,4.32
2023-02-01T04:48:01.331Z,4.29
2023-02-01T04:50:03.231Z,4.28
2023-02-01T04:52:04.343Z,4.28
2023-02-01T04:54:05.924Z,4.27
2023-02-01T04:56:06.911Z,4.22
2023-02-01T04:58:08.636Z,4.2
2023-02-01T05:00:10.277Z,4.24
2023-02-01T05:02:11.721Z,4.26
2023-02-01T05:04:13.186Z,4.17
2023-02-01T05:06:14.754Z,4.15
2023-02-01T05:08:15.960Z,4.19
2023-02-01T05:10:17.631Z,4.16
2023-02-01T05:12:19.207Z,4.13
2023-02-01T05:14:20.222Z,4.08
2023-02-01T05:16:21.812Z,4.08
2023-02-01T05:18:23.252Z,4.08
2023-02-01T05:20:24.487Z,4.03
2023-02-01T05:22:26.063Z,4.02
2023-02-01T05:24:27.279Z,3.93
2023-02-01T05:26:28.369Z,3.92
2023-02-01T05:28:29.695Z,3.91
2023-02-01T05:30:31.473Z,3.89
2023-02-01T05:32:32.521Z,3.98
2023-02-01T05:34:33.746Z,3.94
2023-02-01T05:36:35.252Z,3.96
2023-02-01T05:38:36.268Z,3.95
2023-02-01T05:40:37.709Z,3.96
2023-02-01T05:42:38.985Z,3.97
2023-02-01T05:44:40.115Z,3.92
2023-02-01T05:46:41.478Z,3.92
2023-02-01T05:48:50.864Z,3.96
2023-02-01T05:50:44.653Z,3.99
2023-02-01T05:52:46.378Z,4.01
2023-02-01T05:54:47.564Z,4.08
2023-02-01T05:56:48.955Z,4.05
2023-02-01T05:58:50.447Z,4.01
2023-02-01T06:00:52.400Z,4.05
2023-02-01T06:02:53.938Z,4.08
2023-02-01T06:04:55.058Z,4.05
2023-02-01T06:06:56.349Z,4.08
2023-02-01T06:08:58.301Z,4.12
2023-02-01T06:11:00.029Z,4.06
2023-02-01T06:13:01.241Z,4.03
2023-02-01T06:15:02.637Z,4.05
2023-02-01T06:17:04.361Z,4.05
2023-02-01T06:19:05.796Z,4.02
2023-02-01T06:21:07.521Z,4.01
2023-02-01T06:23:09.432Z,3.95
2023-02-01T06:25:11.126Z,3.99
2023-02-01T06:27:12.912Z,3.96
2023-02-01T06:29:14.399Z,3.92
2023-02-01T06:31:15.719Z,3.93
2023-02-01T06:33:16.807Z,3.87
2023-02-01T06:35:18.252Z,3.88
2023-02-01T06:37:19.536Z,3.85
2023-02-01T06:39:21.134Z,3.89
2023-02-01T06:41:22.326Z,3.85
2023-02-01T06:43:24.182Z,3.87
2023-02-01T06:45:25.226Z,3.82
2023-02-01T06:47:27.120Z,3.81
2023-02-01T06:49:28.169Z,3.89
2023-02-01T06:51:29.404Z,3.83
2023-02-01T06:55:33.084Z,3.8
2023-02-01T06:57:34.409Z,3.77
2023-02-01T06:59:35.788Z,3.78
2023-02-01T07:01:37.547Z,3.71
2023-02-01T07:03:38.700Z,3.68
2023-02-01T07:05:40.409Z,3.64
2023-02-01T07:07:41.630Z,3.59
2023-02-01T07:09:52.769Z,3.53
2023-02-01T07:11:43.820Z,3.54
2023-02-01T07:13:45.866Z,3.5
2023-02-01T07:15:47.348Z,3.53
2023-02-01T07:17:49.191Z,3.61
2023-02-01T07:19:50.596Z,3.62
2023-02-01T07:21:52.076Z,3.65
2023-02-01T07:23:53.327Z,3.65
2023-02-01T07:25:54.540Z,3.72
2023-02-01T07:27:56.346Z,3.72
2023-02-01T07:29:57.509Z,3.78
2023-02-01T07:31:58.561Z,3.78
2023-02-01T07:34:00.494Z,3.8
2023-02-01T07:36:01.877Z,3.84
2023-02-01T07:38:03.810Z,3.88
2023-02-01T07:40:13.900Z,3.87
2023-02-01T07:42:07.066Z,3.99
2023-02-01T07:44:07.963Z,4.04
2023-02-01T07:46:09.419Z,4.06
2023-02-01T07:48:10.594Z,4.08
2023-02-01T07:50:12.332Z,4.09
2023-02-01T07:52:13.964Z,4.09
2023-02-01T07:54:15.056Z,4.17
2023-02-01T07:56:16.082Z,4.17
2023-02-01T07:58:17.479Z,4.14
2023-02-01T08:00:19.154Z,4.22
2023-02-01T08:02:20.436Z,4.2
2023-02-01T08:04:22.051Z,4.24
2023-02-01T08:06:23.755Z,4.25
2023-02-01T08:08:25.130Z,4.26
2023-02-01T08:10:26.770Z,4.31
2023-02-01T08:12:27.894Z,4.35
2023-02-01T08:14:29.829Z,4.39
2023-02-01T08:16:31.121Z,4.36
2023-02-01T08:18:32.253Z,4.37
2023-02-01T08:20:33.506Z,4.4
2023-02-01T08:22:34.579Z,4.41
2023-02-01T08:24:36.212Z,4.43
2023-02-01T08:26:37.696Z,4.46
2023-02-01T08:28:39.238Z,4.49
2023-02-01T08:30:41.155Z,4.48
2023-02-01T08:32:42.905Z,4.53
2023-02-01T08:34:44.516Z,4.51
2023-02-01T08:36:46.238Z,4.47
2023-02-01T08:38:47.904Z,4.55
2023-02-01T08:40:49.129Z,4.53
2023-02-01T08:43:07.207Z,4.56
2023-02-01T08:44:52.820Z,4.53
2023-02-01T08:46:54.508Z,4.58
2023-02-01T08:48:55.702Z,4.67
2023-02-01T08:50:56.954Z,4.76
2023-02-01T08:52:57.903Z,4.89
2023-02-01T08:55:00.002Z,4.98
2023-02-01T08:57:01.827Z,5.11
2023-02-01T08:59:03.228Z,5.19
2023-02-01T09:01:04.996Z,5.25
2023-02-01T09:03:06.529Z,5.05
2023-02-01T09:05:07.607Z,5.17
2023-02-01T09:07:09.197Z,5.12
2023-02-01T09:09:10.453Z,5.26
2023-02-01T09:11:11.626Z,5.12
2023-02-01T09:13:12.911Z,5.25
2023-02-01T09:15:14.707Z,5.34
2023-02-01T09:17:15.931Z,5.38
2023-02-01T09:19:26.203Z,5.35
2023-02-01T09:21:19.829Z,5.48
2023-02-01T09:23:20.819Z,5.6
2023-02-01T09:25:22.273Z,5.64
2023-02-01T09:27:23.867Z,5.72
2023-02-01T09:29:25.433Z,5.79
2023-02-01T09:31:26.946Z,5.77
2023-02-01T09:33:28.495Z,5.8
2023-02-01T09:35:29.858Z,5.72
2023-02-01T09:37:31.023Z,5.71
2023-02-01T09:39:32.134Z,5.73
2023-02-01T09:41:33.412Z,5.62
2023-02-01T09:43:34.484Z,5.68
2023-02-01T09:45:35.802Z,5.81
2023-02-01T09:47:37.560Z,5.92
2023-02-01T09:49:39.090Z,5.79
2023-02-01T09:51:40.712Z,5.88
2023-02-01T09:53:42.252Z,6.04
2023-02-01T09:55:44.293Z,5.84
2023-02-01T09:57:46.160Z,5.87
2023-02-01T09:59:47.895Z,5.93
2023-02-01T10:01:49.683Z,6
2023-02-01T10:03:50.604Z,6.01
2023-02-01T10:05:51.700Z,6.19
2023-02-01T10:07:52.783Z,6.33
2023-02-01T10:09:54.423Z,6.63
2023-02-01T10:11:55.634Z,6.41
2023-02-01T10:13:57.212Z,6.59
2023-02-01T10:15:59.410Z,6.58
2023-02-01T10:18:00.302Z,6.4
2023-02-01T10:20:01.838Z,6.72
2023-02-01T10:22:02.830Z,6.65
2023-02-01T10:24:16.000Z,6.85
2023-02-01T10:26:05.311Z,6.56
2023-02-01T10:28:06.380Z,6.4
2023-02-01T10:30:08.187Z,6.42
2023-02-01T10:32:09.748Z,6.27
2023-02-01T10:34:10.952Z,6.08
2023-02-01T10:36:12.800Z,6
2023-02-01T10:38:13.906Z,5.98
2023-02-01T10:40:15.654Z,5.96
2023-02-01T10:42:17.286Z,5.9
2023-02-01T10:44:18.268Z,5.95
2023-02-01T10:46:19.642Z,5.88
2023-02-01T10:48:20.843Z,5.73
2023-02-01T10:50:22.464Z,5.71
2023-02-01T10:52:24.009Z,5.68
2023-02-01T10:54:25.619Z,5.61
2023-02-01T10:56:27.133Z,5.6
2023-02-01T10:58:28.619Z,5.55
2023-02-01T11:00:30.573Z,5.6
2023-02-01T11:02:31.992Z,5.64
2023-02-01T11:04:33.247Z,5.71
2023-02-01T11:06:35.172Z,5.69
2023-02-01T11:08:36.353Z,5.76
2023-02-01T11:10:37.783Z,5.77
2023-02-01T11:11:21.603Z,5.76
2023-02-01T11:13:22.800Z,5.76
2023-02-01T11:15:25.005Z,5.81
2023-02-01T11:17:26.643Z,5.83
2023-02-01T11:19:28.254Z,5.78
2023-02-01T11:21:29.765Z,5.83
2023-02-01T11:23:30.888Z,5.85
2023-02-01T11:25:32.762Z,5.93
2023-02-01T11:27:34.714Z,5.8
2023-02-01T11:29:35.967Z,5.79
2023-02-01T11:31:37.357Z,5.76
2023-02-01T11:33:38.736Z,5.72
2023-02-01T11:35:39.799Z,5.74
2023-02-01T11:37:41.189Z,5.73
2023-02-01T11:39:42.584Z,5.67
2023-02-01T11:41:43.934Z,5.68
2023-02-01T11:43:45.828Z,5.63
2023-02-01T11:45:47.367Z,5.65
2023-02-01T11:47:48.419Z,5.59
2023-02-01T11:49:50.263Z,5.54
2023-02-01T11:53:53.196Z,5.54
2023-02-01T11:55:54.421Z,5.53
2023-02-01T11:57:55.949Z,5.53
2023-02-01T11:59:57.378Z,5.63
2023-02-01T12:01:57.811Z,5.57
2023-02-01T12:03:59.775Z,5.62
2023-02-01T12:06:00.884Z,5.59
2023-02-01T12:08:02.141Z,5.58
2023-02-01T12:10:12.155Z,5.52
2023-02-01T12:12:04.524Z,5.56
2023-02-01T12:14:05.592Z,5.53
2023-02-01T12:16:07.144Z,5.47
2023-02-01T12:18:08.116Z,5.49
2023-02-01T12:20:09.550Z,5.46
2023-02-01T12:22:10.830Z,5.33
2023-02-01T12:24:12.012Z,5.27
2023-02-01T12:26:13.268Z,5.25
2023-02-01T12:28:14.838Z,5.28
2023-02-01T12:30:16.333Z,5.31
2023-02-01T12:32:17.585Z,5.2
2023-02-01T12:34:18.689Z,5.2
2023-02-01T12:36:20.286Z,5.24
2023-02-01T12:38:21.570Z,5.21
2023-02-01T12:40:23.663Z,5.26
2023-02-01T12:42:24.486Z,5.26
2023-02-01T12:44:26.268Z,5.25
2023-02-01T12:46:27.616Z,5.24
2023-02-01T12:48:29.190Z,5.24
2023-02-01T12:50:30.920Z,5.28
2023-02-01T12:52:32.380Z,5.33
2023-02-01T12:54:33.883Z,5.33
2023-02-01T12:56:35.753Z,5.32
2023-02-01T12:58:37.079Z,5.37
2023-02-01T13:00:38.566Z,5.38
2023-02-01T13:02:40.244Z,5.39
2023-02-01T13:04:41.445Z,5.44
2023-02-01T13:06:42.967Z,5.44
2023-02-01T13:08:44.341Z,5.48
2023-02-01T13:10:46.284Z,5.51
2023-02-01T13:12:47.555Z,5.49
2023-02-01T13:14:48.839Z,5.51
2023-02-01T13:16:50.686Z,5.48
2023-02-01T13:18:52.188Z,5.51
2023-02-01T13:20:53.982Z,5.53
2023-02-01T13:22:55.590Z,5.56
2023-02-01T13:24:57.523Z,5.57
2023-02-01T13:26:58.796Z,5.59
2023-02-01T13:29:00.500Z,5.59
2023-02-01T13:31:02.542Z,5.62
2023-02-01T13:33:51.875Z,5.63
2023-02-01T13:35:05.944Z,5.46
2023-02-01T13:37:07.569Z,5.34
2023-02-01T13:39:09.078Z,5.12
2023-02-01T13:41:10.762Z,4.95
2023-02-01T13:43:12.420Z,4.96
2023-02-01T13:45:13.819Z,4.91
2023-02-01T13:47:14.903Z,4.95
2023-02-01T13:49:16.041Z,5.03
2023-02-01T13:51:17.201Z,5.02
2023-02-01T13:53:18.845Z,4.96
2023-02-01T13:55:20.467Z,4.99
2023-02-01T13:57:22.315Z,5.02
2023-02-01T13:59:23.627Z,5.08
2023-02-01T14:01:25.478Z,5.13
2023-02-01T14:03:26.584Z,5.12
2023-02-01T14:05:27.853Z,5.22
2023-02-01T14:07:29.174Z,5.25
2023-02-01T14:09:30.650Z,5.29
2023-02-01T14:11:32.489Z,5.38
2023-02-01T14:13:33.579Z,5.41
2023-02-01T14:15:43.692Z,5.47
2023-02-01T14:17:35.938Z,5.54
2023-02-01T14:19:37.639Z,5.63
2023-02-01T14:21:39.510Z,5.6
2023-02-01T14:23:40.864Z,5.55
2023-02-01T14:25:42.494Z,5.6
2023-02-01T14:27:43.892Z,5.51
2023-02-01T14:29:46.004Z,5.52
2023-02-01T14:31:47.309Z,5.48
2023-02-01T14:33:48.168Z,5.44
2023-02-01T14:35:50.115Z,5.38
2023-02-01T14:37:51.510Z,5.36
2023-02-01T14:39:52.887Z,5.29
2023-02-01T14:41:54.624Z,5.28
2023-02-01T14:43:55.880Z,5.29
2023-02-01T14:45:57.683Z,5.25
2023-02-01T14:47:59.260Z,5.26
2023-02-01T14:50:01.165Z,5.25
2023-02-01T14:52:02.693Z,5.27
2023-02-01T14:54:04.676Z,5.29
2023-02-01T14:56:05.727Z,5.3
2023-02-01T15:00:08.273Z,5.3
2023-02-01T15:02:09.894Z,5.38
2023-02-01T15:04:11.811Z,5.39
2023-02-01T15:06:12.819Z,5.42
2023-02-01T15:08:13.930Z,5.41
2023-02-01T15:10:15.059Z,5.41
2023-02-01T15:12:16.505Z,5.38
2023-02-01T15:14:17.742Z,5.42
2023-02-01T15:16:19.420Z,5.41
2023-02-01T15:18:21.190Z,5.36
2023-02-01T15:20:22.465Z,5.37
2023-02-01T15:22:23.439Z,5.42
2023-02-01T15:24:24.699Z,5.42
2023-02-01T15:26:26.366Z,5.39
2023-02-01T15:28:27.787Z,5.4
2023-02-01T15:30:28.868Z,5.36
2023-02-01T15:32:30.293Z,5.38
2023-02-01T15:34:31.877Z,5.37
2023-02-01T15:36:32.882Z,5.42
2023-02-01T15:38:34.162Z,5.37
2023-02-01T15:40:35.726Z,5.37
2023-02-01T15:42:37.612Z,5.43
2023-02-01T15:44:38.872Z,5.4
2023-02-01T15:46:40.469Z,5.36
2023-02-01T15:48:41.819Z,5.34
2023-02-01T15:50:43.596Z,5.32
2023-02-01T15:52:45.364Z,5.34
2023-02-01T15:54:46.953Z,5.29
2023-02-01T15:56:48.746Z,5.33
2023-02-01T15:58:49.986Z,5.3
2023-02-01T16:00:51.797Z,5.33
2023-02-01T16:02:53.098Z,5.3
2023-02-01T16:04:54.601Z,5.29
2023-02-01T16:06:55.791Z,5.26
2023-02-01T16:08:57.259Z,5.25
2023-02-01T16:10:59.085Z,5.28
2023-02-01T16:13:00.918Z,5.35
2023-02-01T16:15:02.108Z,5.27
2023-02-01T16:17:03.684Z,5.31
2023-02-01T16:19:05.445Z,5.28
2023-02-01T16:21:06.505Z,5.31
2023-02-01T16:23:08.119Z,5.33
2023-02-01T16:25:09.499Z,5.35
2023-02-01T16:27:11.002Z,5.38
2023-02-01T16:29:12.856Z,5.41
2023-02-01T16:31:14.739Z,5.41
2023-02-01T16:33:15.751Z,5.46
2023-02-01T16:35:17.459Z,5.47
2023-02-01T16:37:18.544Z,5.42
2023-02-01T16:39:20.349Z,5.4
2023-02-01T16:41:21.888Z,5.49
2023-02-01T16:43:23.699Z,5.47
2023-02-01T16:45:25.391Z,5.49
2023-02-01T16:47:26.772Z,5.49
2023-02-01T16:49:27.870Z,5.52
2023-02-01T16:51:28.864Z,5.51
2023-02-01T16:53:31.795Z,5.51
2023-02-01T16:55:31.789Z,5.49
2023-02-01T16:57:33.159Z,5.51
2023-02-01T16:59:34.850Z,5.5
2023-02-01T17:01:36.773Z,5.54
2023-02-01T17:03:37.645Z,5.54
2023-02-01T17:05:39.578Z,5.57
2023-02-01T17:07:41.257Z,5.65
2023-02-01T17:09:42.993Z,5.59
2023-02-01T17:11:44.335Z,5.57
2023-02-01T17:13:45.933Z,5.56
2023-02-01T17:15:47.692Z,5.59
2023-02-01T17:17:48.939Z,5.63
2023-02-01T17:19:51.621Z,5.68
2023-02-01T17:23:53.697Z,5.64
2023-02-01T17:25:55.233Z,5.58
2023-02-01T17:27:57.017Z,5.62
2023-02-01T17:29:58.411Z,5.65
2023-02-01T17:31:59.828Z,5.65
2023-02-01T17:34:01.302Z,5.59
2023-02-01T17:36:02.788Z,5.65
2023-02-01T17:38:04.525Z,5.58
2023-02-01T17:40:05.574Z,5.65
2023-02-01T17:42:06.617Z,5.62
2023-02-01T17:44:08.326Z,5.59
2023-02-01T17:46:09.677Z,5.64
2023-02-01T17:48:11.025Z,5.63
2023-02-01T17:50:12.755Z,5.65
2023-02-01T17:52:14.268Z,5.63
2023-02-01T17:54:16.098Z,5.64
2023-02-01T17:56:17.783Z,5.65
2023-02-01T17:59:02.697Z,5.66
2023-02-01T18:01:04.142Z,5.65
2023-02-01T18:03:05.159Z,5.69
2023-02-01T18:05:06.775Z,5.68
2023-02-01T18:07:08.389Z,5.73
2023-02-01T18:09:09.396Z,5.74
2023-02-01T18:11:10.488Z,5.74
2023-02-01T18:13:11.735Z,5.76
2023-02-01T18:15:13.178Z,5.74
2023-02-01T18:17:15.120Z,5.74
2023-02-01T18:19:16.771Z,5.7
2023-02-01T18:21:18.438Z,5.72
2023-02-01T18:23:20.083Z,5.68
2023-02-01T18:25:21.505Z,5.75
2023-02-01T18:27:22.614Z,5.66
2023-02-01T18:29:23.727Z,5.63
2023-02-01T18:31:25.363Z,5.64
2023-02-01T18:33:26.498Z,5.7
2023-02-01T18:35:27.517Z,5.64
2023-02-01T18:37:29.249Z,5.63
2023-02-01T18:39:30.503Z,5.58
2023-02-01T18:41:31.728Z,5.64
2023-02-01T18:43:33.863Z,5.55
2023-02-01T18:45:35.530Z,5.58
2023-02-01T18:47:37.417Z,5.57
2023-02-01T18:49:38.894Z,5.52
2023-02-01T18:51:39.917Z,5.57
2023-02-01T18:53:41.234Z,5.53
2023-02-01T18:55:42.490Z,5.55
2023-02-01T18:57:43.591Z,5.52
2023-02-01T18:59:44.563Z,5.59
2023-02-01T19:01:45.825Z,5.5
2023-02-01T19:03:47.179Z,5.43
2023-02-01T19:05:48.564Z,5.5
2023-02-01T19:07:50.147Z,5.52
2023-02-01T19:09:51.856Z,5.52
2023-02-01T19:11:53.330Z,5.54
2023-02-01T19:13:54.372Z,5.59
2023-02-01T19:15:55.581Z,5.58
2023-02-01T19:17:56.844Z,5.54
2023-02-01T19:19:58.304Z,5.54
2023-02-01T19:21:59.603Z,5.54
2023-02-01T19:24:00.859Z,5.52
2023-02-01T19:26:02.678Z,5.53
2023-02-01T19:28:03.852Z,5.54
2023-02-01T19:30:05.479Z,5.55
2023-02-01T19:32:07.350Z,5.54
2023-02-01T19:34:09.235Z,5.56
2023-02-01T19:36:10.818Z,5.56
2023-02-01T19:38:12.702Z,5.52
2023-02-01T19:40:14.183Z,5.62
2023-02-01T19:42:15.809Z,5.52
2023-02-01T19:44:17.445Z,5.47
2023-02-01T19:46:19.363Z,5.48
2023-02-01T19:48:21.233Z,5.56
2023-02-01T19:50:26.397Z,5.52
2023-02-01T19:52:23.885Z,5.59
2023-02-01T19:54:25.182Z,5.63
2023-02-01T19:56:27.082Z,5.56
2023-02-01T19:58:28.735Z,5.66
2023-02-01T20:00:29.820Z,5.58
2023-02-01T20:02:31.102Z,5.65
2023-02-01T20:04:32.774Z,5.69
2023-02-01T20:06:34.708Z,5.62
2023-02-01T20:08:36.606Z,5.69
2023-02-01T20:10:38.365Z,5.7
2023-02-01T20:12:39.808Z,5.69
2023-02-01T20:14:41.564Z,5.74
2023-02-01T20:16:42.764Z,5.7
2023-02-01T20:18:44.612Z,5.74
2023-02-01T20:20:45.886Z,5.7
2023-02-01T20:22:47.684Z,5.72
2023-02-01T20:24:48.761Z,5.74
2023-02-01T20:26:51.635Z,5.77
2023-02-01T20:28:52.692Z,5.72
2023-02-01T20:30:54.089Z,5.76
2023-02-01T20:32:55.896Z,5.75
2023-02-01T20:34:57.626Z,5.78
2023-02-01T20:36:58.952Z,5.72
2023-02-01T20:39:00.286Z,5.76
2023-02-01T20:41:01.620Z,5.72
2023-02-01T20:43:03.160Z,5.77
2023-02-01T20:45:05.173Z,5.68
2023-02-01T20:47:06.611Z,5.65
2023-02-01T20:49:07.706Z,5.63
2023-02-01T20:51:09.143Z,5.66
2023-02-01T20:53:14.629Z,5.7
2023-02-01T20:55:12.013Z,5.77
2023-02-01T20:57:13.579Z,5.71
2023-02-01T20:59:14.850Z,5.62
2023-02-01T21:01:16.609Z,5.6
2023-02-01T21:03:17.655Z,5.66
2023-02-01T21:07:20.564Z,5.54
2023-02-01T21:09:22.072Z,5.52
2023-02-01T21:11:23.241Z,5.48
2023-02-01T21:13:24.296Z,5.55
2023-02-01T21:15:26.019Z,5.63
2023-02-01T21:17:26.953Z,5.62
2023-02-01T21:19:28.586Z,5.62
2023-02-01T21:21:29.695Z,5.6
2023-02-01T21:23:31.392Z,5.65
2023-02-01T21:25:33.291Z,5.61
2023-02-01T21:27:34.543Z,5.65
2023-02-01T21:29:36.339Z,5.72
2023-02-01T21:31:37.453Z,5.74
2023-02-01T21:33:38.557Z,5.65
2023-02-01T21:35:39.525Z,5.66
2023-02-01T21:37:41.010Z,5.68
2023-02-01T21:39:43.342Z,5.75
2023-02-01T21:41:44.731Z,5.74
2023-02-01T21:43:46.687Z,5.71
2023-02-01T21:45:51.243Z,5.71
2023-02-01T21:47:49.837Z,5.7
2023-02-01T21:49:50.900Z,5.76
2023-02-01T21:51:52.316Z,5.76
2023-02-01T21:53:53.873Z,5.74
2023-02-01T21:55:54.902Z,5.76
2023-02-01T21:57:56.226Z,5.77
2023-02-01T21:59:57.541Z,5.78
2023-02-01T22:01:59.037Z,5.77
2023-02-01T22:04:00.942Z,5.76
2023-02-01T22:06:02.777Z,5.77
2023-02-01T22:08:04.636Z,5.73
2023-02-01T22:10:06.486Z,5.78
2023-02-01T22:12:08.427Z,5.76
2023-02-01T22:14:09.770Z,5.72
2023-02-01T22:16:11.671Z,5.75
2023-02-01T22:18:13.161Z,5.74
2023-02-01T22:20:14.594Z,5.77
2023-02-01T22:22:15.999Z,5.72
2023-02-01T22:24:17.631Z,5.69
2023-02-01T22:26:18.986Z,5.73
2023-02-01T22:28:30.304Z,5.77
2023-02-01T22:30:21.699Z,5.72
2023-02-01T22:32:23.595Z,5.69
2023-02-01T22:34:25.504Z,5.82
2023-02-01T22:36:27.131Z,5.78
2023-02-01T22:38:28.194Z,5.72
2023-02-01T22:40:30.010Z,5.73
2023-02-01T22:42:31.195Z,5.76
2023-02-01T22:44:33.173Z,5.77
2023-02-01T22:46:34.187Z,5.78
2023-02-01T22:48:35.553Z,5.77
2023-02-01T22:50:37.302Z,5.77
2023-02-01T22:52:38.841Z,5.8
2023-02-01T22:54:39.823Z,5.77
2023-02-01T22:56:41.477Z,5.78
2023-02-01T22:58:43.045Z,5.76
2023-02-01T23:00:44.305Z,5.79
2023-02-01T23:02:46.074Z,5.73
2023-02-01T23:04:47.605Z,5.74
2023-02-01T23:06:49.366Z,5.69
2023-02-01T23:08:51.026Z,5.72
2023-02-01T23:10:52.978Z,5.74
2023-02-01T23:12:54.169Z,5.64
2023-02-01T23:14:55.282Z,5.57
2023-02-01T23:16:56.954Z,5.53
2023-02-01T23:18:58.400Z,5.56
2023-02-01T23:20:59.451Z,5.54
2023-02-01T23:23:01.146Z,5.47
2023-02-01T23:25:02.448Z,5.53
2023-02-01T23:27:03.968Z,5.49
2023-02-01T23:29:04.963Z,5.48
2023-02-01T23:31:06.184Z,5.5
2023-02-01T23:33:07.292Z,5.47
2023-02-01T23:35:09.108Z,5.47
2023-02-01T23:37:10.514Z,5.47
2023-02-01T23:39:12.342Z,5.47
2023-02-01T23:41:13.763Z,5.46
2023-02-01T23:43:15.086Z,5.46
2023-02-01T23:45:16.321Z,5.49
2023-02-01T23:47:17.781Z,5.47
2023-02-01T23:49:19.372Z,5.41
2023-02-01T23:51:21.266Z,5.37
2023-02-01T23:53:23.126Z,5.31
2023-02-01T23:55:24.481Z,5.22
2023-02-01T23:57:26.117Z,5.15
2023-02-01T23:59:27.512Z,5.21
